Mohammedia, Morocco

2:29 PM WEST on August 01, 2014 (GMT +0100)
Anfa (GMMC) Elev 203 ft | 33.57 °N, 7.67 °W | Change Station

Current weather conditions updated 29 minutes ago

Mostly Cloudy
Mostly Cloudy
77 °F
Feels Like 77 °F
N
12
Wind Variable Wind from NW

Today is forecast to be nearly the same temperature as yesterday.

Today
High -- | Low -- °F
--% Chance of Precip.
Yesterday
High -- | Low -- °F
Precip. -- in
6:41 AM 8:29 PM
Waxing Crescent, 26% visible
Pressure 30.04 in
Visibility 6.2 miles
Clouds Mostly Cloudy 1600 ft
Dew Point 63 °F
Humidity 61%
Rainfall 0.00 in
Snow Depth Not available.
UV 7 out of 12
Pollen Not available.
Air Quality Not available.
Flu Activity Not available.
METAR GMMC 011300Z 32010KT 9999 BKN016 25/17 Q1017

More Conditions Fewer Conditions

Pressure 30.04 in
Visibility 6.2 miles
Clouds Mostly Cloudy 1600 ft
Dew Point 63 °F
Humidity 61%
Rainfall 0.00 in
Snow Depth Not available.
UV 7 out of 12
Pollen Not available.
Air Quality Not available.
Flu Activity Not available.
METAR GMMC 011300Z 32010KT 9999 BKN016 25/17 Q1017

More Conditions Fewer Conditions

10-Day Weather Forecast

Almanac

Astronomy

Aug. 01, 2014 Rise Set
Actual Time 6:41 AM WEST 8:29 PM WEST
Civil Twilight 6:14 AM WEST 8:57 PM WEST
Nautical Twilight 5:41 AM WEST 9:30 PM WEST
Astronomical Twilight 5:06 AM WEST 10:04 PM WEST
Moon 11:35 AM WEST 11:25 PM WEST
Length of Visible Light 14h 43m
Length of Day
13h 48m
Tomorrow will be 1m 34s shorter.
Waxing Crescent, 26% of the Moon is Illuminated
Today
Waxing Crescent
Aug 3
First Quarter
Aug 10
Full
Aug 17
Last Quarter
Aug 25
New

Yesterday's Extremes

Country Highs Country Lows

Community

WunderPhotos

Upload Photos

1,739,556 photos uploaded!

Nearby

Snow Depth

Not available.

Earthquake Activity

City Distance Mag. Time & Date
No recent earthquake activity has been reported nearby.
Minimum magnitude displayed is 2.5.

Coastal Water Temperatures

Place Temperature
No Stations Reporting

Nearby Weather Stations

There are no personal weather stations in this area.